sensor_id;sensor_type;location;lat;lon;timestamp;pressure;altitude;pressure_sealevel;temperature;humidity
13080;BME280;6606;49.154;9.280;2023-11-19T00:01:38;99588.13;;;8.53;100.00
13080;BME280;6606;49.154;9.280;2023-11-19T00:04:20;99586.19;;;8.57;100.00
13080;BME280;6606;49.154;9.280;2023-11-19T00:07:06;99578.41;;;8.54;100.00
13080;BME280;6606;49.154;9.280;2023-11-19T00:09:50;99581.16;;;8.33;100.00
13080;BME280;6606;49.154;9.280;2023-11-19T00:12:32;99573.13;;;8.35;100.00
13080;BME280;6606;49.154;9.280;2023-11-19T00:15:14;99573.09;;;8.54;100.00
13080;BME280;6606;49.154;9.280;2023-11-19T00:17:58;99564.53;;;8.49;100.00
13080;BME280;6606;49.154;9.280;2023-11-19T00:20:40;99557.69;;;8.62;100.00
13080;BME280;6606;49.154;9.280;2023-11-19T00:23:26;99562.94;;;8.64;100.00
13080;BME280;6606;49.154;9.280;2023-11-19T00:26:08;99553.03;;;8.67;100.00
13080;BME280;6606;49.154;9.280;2023-11-19T00:28:51;99553.66;;;8.72;100.00
13080;BME280;6606;49.154;9.280;2023-11-19T00:31:33;99558.97;;;8.72;100.00
13080;BME280;6606;49.154;9.280;2023-11-19T00:34:15;99559.91;;;8.71;100.00
13080;BME280;6606;49.154;9.280;2023-11-19T00:37:01;99553.59;;;8.74;100.00
13080;BME280;6606;49.154;9.280;2023-11-19T00:39:45;99546.59;;;8.90;100.00
13080;BME280;6606;49.154;9.280;2023-11-19T00:42:27;99550.88;;;8.93;100.00
13080;BME280;6606;49.154;9.280;2023-11-19T00:45:09;99544.94;;;8.88;100.00
13080;BME280;6606;49.154;9.280;2023-11-19T00:47:53;99543.84;;;8.74;100.00
13080;BME280;6606;49.154;9.280;2023-11-19T00:50:34;99542.75;;;8.61;100.00
13080;BME280;6606;49.154;9.280;2023-11-19T00:53:16;99528.19;;;8.70;100.00
13080;BME280;6606;49.154;9.280;2023-11-19T00:55:59;99527.53;;;8.83;100.00
13080;BME280;6606;49.154;9.280;2023-11-19T00:58:41;99507.19;;;8.84;100.00
13080;BME280;6606;49.154;9.280;2023-11-19T01:01:23;99511.63;;;8.83;100.00
13080;BME280;6606;49.154;9.280;2023-11-19T01:04:06;99507.66;;;8.92;100.00
13080;BME280;6606;49.154;9.280;2023-11-19T01:06:49;99494.97;;;8.99;100.00
13080;BME280;6606;49.154;9.280;2023-11-19T01:09:30;99499.97;;;9.05;100.00
13080;BME280;6606;49.154;9.280;2023-11-19T01:12:16;99507.41;;;8.97;100.00
13080;BME280;6606;49.154;9.280;2023-11-19T01:14:58;99500.72;;;8.90;100.00
13080;BME280;6606;49.154;9.280;2023-11-19T01:17:39;99499.47;;;8.97;100.00
13080;BME280;6606;49.154;9.280;2023-11-19T01:20:21;99514.59;;;8.95;100.00
13080;BME280;6606;49.154;9.280;2023-11-19T01:23:04;99511.47;;;9.04;100.00
13080;BME280;6606;49.154;9.280;2023-11-19T01:25:45;99510.00;;;8.98;100.00
13080;BME280;6606;49.154;9.280;2023-11-19T01:28:30;99519.88;;;8.95;100.00
13080;BME280;6606;49.154;9.280;2023-11-19T01:31:14;99520.03;;;8.92;100.00
13080;BME280;6606;49.154;9.280;2023-11-19T01:33:56;99522.16;;;8.68;100.00
13080;BME280;6606;49.154;9.280;2023-11-19T01:36:38;99519.25;;;8.72;100.00
13080;BME280;6606;49.154;9.280;2023-11-19T01:39:20;99518.31;;;8.73;100.00
13080;BME280;6606;49.154;9.280;2023-11-19T01:42:02;99514.72;;;8.74;100.00
13080;BME280;6606;49.154;9.280;2023-11-19T01:44:58;99508.03;;;8.85;100.00
13080;BME280;6606;49.154;9.280;2023-11-19T01:47:40;99489.00;;;8.94;100.00
13080;BME280;6606;49.154;9.280;2023-11-19T01:50:22;99482.28;;;8.71;100.00
13080;BME280;6606;49.154;9.280;2023-11-19T01:53:04;99476.19;;;8.86;100.00
13080;BME280;6606;49.154;9.280;2023-11-19T01:55:47;99485.00;;;8.87;100.00
13080;BME280;6606;49.154;9.280;2023-11-19T01:58:30;99485.75;;;8.89;100.00
13080;BME280;6606;49.154;9.280;2023-11-19T02:01:13;99507.91;;;8.70;100.00
13080;BME280;6606;49.154;9.280;2023-11-19T02:03:57;99504.28;;;8.54;100.00
13080;BME280;6606;49.154;9.280;2023-11-19T02:06:40;99503.03;;;8.61;100.00
13080;BME280;6606;49.154;9.280;2023-11-19T02:09:23;99496.97;;;8.59;100.00
13080;BME280;6606;49.154;9.280;2023-11-19T02:12:06;99508.19;;;8.47;100.00
13080;BME280;6606;49.154;9.280;2023-11-19T02:14:48;99508.78;;;8.34;100.00
13080;BME280;6606;49.154;9.280;2023-11-19T02:17:31;99505.34;;;8.32;100.00
13080;BME280;6606;49.154;9.280;2023-11-19T02:20:21;99511.59;;;8.31;100.00
13080;BME280;6606;49.154;9.280;2023-11-19T02:23:05;99486.81;;;8.32;100.00
13080;BME280;6606;49.154;9.280;2023-11-19T02:25:55;99507.34;;;8.27;100.00
13080;BME280;6606;49.154;9.280;2023-11-19T02:28:42;99507.66;;;8.21;100.00
13080;BME280;6606;49.154;9.280;2023-11-19T02:31:25;99496.34;;;8.36;100.00
13080;BME280;6606;49.154;9.280;2023-11-19T02:34:10;99492.06;;;8.51;100.00
13080;BME280;6606;49.154;9.280;2023-11-19T02:36:53;99497.13;;;8.56;100.00
13080;BME280;6606;49.154;9.280;2023-11-19T02:39:34;99491.84;;;8.56;100.00
13080;BME280;6606;49.154;9.280;2023-11-19T02:42:17;99477.91;;;8.52;100.00
13080;BME280;6606;49.154;9.280;2023-11-19T02:45:00;99470.81;;;8.53;100.00
13080;BME280;6606;49.154;9.280;2023-11-19T02:47:47;99480.00;;;8.63;100.00
13080;BME280;6606;49.154;9.280;2023-11-19T02:50:28;99484.44;;;8.45;100.00
13080;BME280;6606;49.154;9.280;2023-11-19T02:53:11;99475.31;;;8.51;100.00
13080;BME280;6606;49.154;9.280;2023-11-19T02:55:53;99475.16;;;8.54;100.00
13080;BME280;6606;49.154;9.280;2023-11-19T02:58:43;99483.66;;;8.60;100.00
13080;BME280;6606;49.154;9.280;2023-11-19T03:01:27;99475.63;;;8.62;100.00
13080;BME280;6606;49.154;9.280;2023-11-19T03:04:10;99459.91;;;8.59;100.00
13080;BME280;6606;49.154;9.280;2023-11-19T03:06:52;99452.50;;;8.48;100.00
13080;BME280;6606;49.154;9.280;2023-11-19T03:09:34;99432.84;;;8.36;100.00
13080;BME280;6606;49.154;9.280;2023-11-19T03:12:16;99428.78;;;8.47;100.00
13080;BME280;6606;49.154;9.280;2023-11-19T03:14:58;99416.31;;;8.49;100.00
13080;BME280;6606;49.154;9.280;2023-11-19T03:17:41;99428.06;;;8.43;100.00
13080;BME280;6606;49.154;9.280;2023-11-19T03:20:24;99424.31;;;8.65;100.00
13080;BME280;6606;49.154;9.280;2023-11-19T03:23:08;99413.25;;;8.74;100.00
13080;BME280;6606;49.154;9.280;2023-11-19T03:25:50;99429.53;;;8.66;100.00
13080;BME280;6606;49.154;9.280;2023-11-19T03:28:32;99424.78;;;8.73;100.00
13080;BME280;6606;49.154;9.280;2023-11-19T03:31:13;99418.78;;;8.69;100.00
13080;BME280;6606;49.154;9.280;2023-11-19T03:33:56;99415.81;;;8.75;100.00
13080;BME280;6606;49.154;9.280;2023-11-19T03:36:38;99404.31;;;8.76;100.00
13080;BME280;6606;49.154;9.280;2023-11-19T03:39:20;99395.88;;;8.86;100.00
13080;BME280;6606;49.154;9.280;2023-11-19T03:42:05;99403.34;;;8.95;100.00
13080;BME280;6606;49.154;9.280;2023-11-19T03:44:47;99397.94;;;8.96;100.00
13080;BME280;6606;49.154;9.280;2023-11-19T03:47:30;99396.03;;;9.00;100.00
13080;BME280;6606;49.154;9.280;2023-11-19T03:50:13;99387.84;;;9.20;100.00
13080;BME280;6606;49.154;9.280;2023-11-19T03:52:56;99387.09;;;9.18;100.00
13080;BME280;6606;49.154;9.280;2023-11-19T03:55:38;99383.41;;;9.21;100.00
13080;BME280;6606;49.154;9.280;2023-11-19T03:58:19;99396.94;;;9.32;100.00
13080;BME280;6606;49.154;9.280;2023-11-19T04:01:01;99388.72;;;9.37;100.00
13080;BME280;6606;49.154;9.280;2023-11-19T04:03:43;99392.72;;;9.44;100.00
13080;BME280;6606;49.154;9.280;2023-11-19T04:06:27;99392.91;;;9.41;100.00
13080;BME280;6606;49.154;9.280;2023-11-19T04:09:09;99382.91;;;9.62;100.00
13080;BME280;6606;49.154;9.280;2023-11-19T04:11:50;99381.69;;;9.83;100.00
13080;BME280;6606;49.154;9.280;2023-11-19T04:14:32;99377.13;;;10.01;100.00
13080;BME280;6606;49.154;9.280;2023-11-19T04:17:14;99378.19;;;10.13;100.00
13080;BME280;6606;49.154;9.280;2023-11-19T04:19:55;99381.94;;;10.25;100.00
13080;BME280;6606;49.154;9.280;2023-11-19T04:22:38;99376.06;;;10.34;100.00
13080;BME280;6606;49.154;9.280;2023-11-19T04:25:20;99386.03;;;10.45;100.00
13080;BME280;6606;49.154;9.280;2023-11-19T04:28:04;99389.75;;;10.42;100.00
13080;BME280;6606;49.154;9.280;2023-11-19T04:30:46;99374.38;;;10.47;100.00
13080;BME280;6606;49.154;9.280;2023-11-19T04:33:28;99386.31;;;10.56;100.00
13080;BME280;6606;49.154;9.280;2023-11-19T04:36:10;99371.28;;;10.55;100.00
13080;BME280;6606;49.154;9.280;2023-11-19T04:38:53;99366.84;;;10.55;100.00
13080;BME280;6606;49.154;9.280;2023-11-19T04:41:35;99361.38;;;10.58;100.00
13080;BME280;6606;49.154;9.280;2023-11-19T04:44:17;99369.16;;;10.62;100.00
13080;BME280;6606;49.154;9.280;2023-11-19T04:46:58;99381.47;;;10.63;100.00
13080;BME280;6606;49.154;9.280;2023-11-19T04:49:41;99378.03;;;10.61;100.00
13080;BME280;6606;49.154;9.280;2023-11-19T04:52:23;99385.84;;;10.64;100.00
13080;BME280;6606;49.154;9.280;2023-11-19T04:55:07;99384.50;;;10.71;100.00
13080;BME280;6606;49.154;9.280;2023-11-19T04:57:54;99384.72;;;10.82;100.00
13080;BME280;6606;49.154;9.280;2023-11-19T05:00:35;99385.09;;;10.76;100.00
13080;BME280;6606;49.154;9.280;2023-11-19T05:03:17;99382.06;;;10.82;100.00
13080;BME280;6606;49.154;9.280;2023-11-19T05:05:59;99382.66;;;10.87;100.00
13080;BME280;6606;49.154;9.280;2023-11-19T05:08:40;99372.97;;;10.86;100.00
13080;BME280;6606;49.154;9.280;2023-11-19T05:11:23;99387.19;;;10.99;100.00
13080;BME280;6606;49.154;9.280;2023-11-19T05:14:05;99391.94;;;10.94;100.00
13080;BME280;6606;49.154;9.280;2023-11-19T05:16:47;99389.28;;;11.09;100.00
13080;BME280;6606;49.154;9.280;2023-11-19T05:19:29;99392.88;;;11.08;100.00
13080;BME280;6606;49.154;9.280;2023-11-19T05:22:10;99386.81;;;11.20;100.00
13080;BME280;6606;49.154;9.280;2023-11-19T05:24:57;99384.31;;;11.31;100.00
13080;BME280;6606;49.154;9.280;2023-11-19T05:27:40;99379.75;;;11.33;100.00
13080;BME280;6606;49.154;9.280;2023-11-19T05:30:22;99374.72;;;11.29;100.00
13080;BME280;6606;49.154;9.280;2023-11-19T05:33:04;99380.72;;;11.32;100.00
13080;BME280;6606;49.154;9.280;2023-11-19T05:35:46;99377.31;;;11.30;100.00
13080;BME280;6606;49.154;9.280;2023-11-19T05:38:27;99371.38;;;11.39;100.00
13080;BME280;6606;49.154;9.280;2023-11-19T05:41:09;99382.38;;;11.47;100.00
13080;BME280;6606;49.154;9.280;2023-11-19T05:43:52;99375.16;;;11.50;100.00
13080;BME280;6606;49.154;9.280;2023-11-19T05:46:34;99369.09;;;11.47;100.00
13080;BME280;6606;49.154;9.280;2023-11-19T05:49:21;99381.44;;;11.49;100.00
13080;BME280;6606;49.154;9.280;2023-11-19T05:52:03;99383.50;;;11.58;100.00
13080;BME280;6606;49.154;9.280;2023-11-19T05:54:47;99381.69;;;11.58;100.00
13080;BME280;6606;49.154;9.280;2023-11-19T05:57:32;99379.34;;;11.54;100.00
13080;BME280;6606;49.154;9.280;2023-11-19T06:00:17;99385.22;;;11.59;100.00
13080;BME280;6606;49.154;9.280;2023-11-19T06:02:58;99382.38;;;11.62;100.00
13080;BME280;6606;49.154;9.280;2023-11-19T06:05:40;99387.84;;;11.73;100.00
13080;BME280;6606;49.154;9.280;2023-11-19T06:08:22;99381.75;;;11.71;100.00
13080;BME280;6606;49.154;9.280;2023-11-19T06:11:04;99381.19;;;11.80;100.00
13080;BME280;6606;49.154;9.280;2023-11-19T06:13:46;99370.75;;;11.77;100.00
13080;BME280;6606;49.154;9.280;2023-11-19T06:16:29;99378.88;;;11.88;100.00
13080;BME280;6606;49.154;9.280;2023-11-19T06:19:11;99361.38;;;11.84;100.00
13080;BME280;6606;49.154;9.280;2023-11-19T06:21:53;99368.44;;;11.85;100.00
13080;BME280;6606;49.154;9.280;2023-11-19T06:24:35;99379.41;;;11.94;100.00
13080;BME280;6606;49.154;9.280;2023-11-19T06:27:16;99369.34;;;11.99;100.00
13080;BME280;6606;49.154;9.280;2023-11-19T06:29:58;99369.34;;;11.99;100.00
13080;BME280;6606;49.154;9.280;2023-11-19T06:32:41;99371.88;;;12.00;100.00
13080;BME280;6606;49.154;9.280;2023-11-19T06:35:23;99372.56;;;12.04;100.00
13080;BME280;6606;49.154;9.280;2023-11-19T06:38:05;99367.47;;;12.14;100.00
13080;BME280;6606;49.154;9.280;2023-11-19T06:40:47;99376.41;;;12.13;100.00
13080;BME280;6606;49.154;9.280;2023-11-19T06:43:28;99373.25;;;12.20;100.00
13080;BME280;6606;49.154;9.280;2023-11-19T06:46:15;99363.84;;;12.27;100.00
13080;BME280;6606;49.154;9.280;2023-11-19T06:48:58;99367.47;;;12.14;100.00
13080;BME280;6606;49.154;9.280;2023-11-19T06:51:41;99369.47;;;12.10;100.00
13080;BME280;6606;49.154;9.280;2023-11-19T06:54:24;99370.47;;;12.22;100.00
13080;BME280;6606;49.154;9.280;2023-11-19T06:57:06;99384.66;;;12.22;100.00
13080;BME280;6606;49.154;9.280;2023-11-19T06:59:48;99379.44;;;12.33;100.00
13080;BME280;6606;49.154;9.280;2023-11-19T07:02:30;99379.22;;;12.37;100.00
13080;BME280;6606;49.154;9.280;2023-11-19T07:05:13;99389.06;;;12.49;100.00
13080;BME280;6606;49.154;9.280;2023-11-19T07:07:55;99397.41;;;12.30;100.00
13080;BME280;6606;49.154;9.280;2023-11-19T07:10:36;99398.84;;;12.36;100.00
13080;BME280;6606;49.154;9.280;2023-11-19T07:13:19;99406.63;;;12.39;100.00
13080;BME280;6606;49.154;9.280;2023-11-19T07:16:01;99400.88;;;12.45;100.00
13080;BME280;6606;49.154;9.280;2023-11-19T07:18:43;99397.34;;;12.44;100.00
13080;BME280;6606;49.154;9.280;2023-11-19T07:21:27;99401.19;;;12.53;100.00
13080;BME280;6606;49.154;9.280;2023-11-19T07:24:09;99399.53;;;12.65;100.00
13080;BME280;6606;49.154;9.280;2023-11-19T07:26:53;99398.56;;;12.66;100.00
13080;BME280;6606;49.154;9.280;2023-11-19T07:29:35;99391.19;;;12.69;100.00
13080;BME280;6606;49.154;9.280;2023-11-19T07:32:17;99411.13;;;12.76;100.00
13080;BME280;6606;49.154;9.280;2023-11-19T07:34:59;99407.84;;;12.86;100.00
13080;BME280;6606;49.154;9.280;2023-11-19T07:37:42;99415.31;;;12.81;100.00
13080;BME280;6606;49.154;9.280;2023-11-19T07:40:24;99413.81;;;12.76;100.00
13080;BME280;6606;49.154;9.280;2023-11-19T07:43:24;99410.38;;;12.87;100.00
13080;BME280;6606;49.154;9.280;2023-11-19T07:46:10;99408.16;;;12.94;100.00
13080;BME280;6606;49.154;9.280;2023-11-19T07:48:53;99406.13;;;12.97;100.00
13080;BME280;6606;49.154;9.280;2023-11-19T07:51:35;99410.63;;;13.10;100.00
13080;BME280;6606;49.154;9.280;2023-11-19T07:54:18;99411.69;;;12.94;100.00
13080;BME280;6606;49.154;9.280;2023-11-19T07:57:02;99427.25;;;13.13;100.00
13080;BME280;6606;49.154;9.280;2023-11-19T07:59:43;99426.81;;;12.94;100.00
13080;BME280;6606;49.154;9.280;2023-11-19T08:02:25;99430.88;;;12.87;100.00
13080;BME280;6606;49.154;9.280;2023-11-19T08:05:07;99421.78;;;12.76;100.00
13080;BME280;6606;49.154;9.280;2023-11-19T08:07:52;99422.56;;;12.78;100.00
13080;BME280;6606;49.154;9.280;2023-11-19T08:10:35;99412.72;;;12.66;100.00
13080;BME280;6606;49.154;9.280;2023-11-19T08:13:17;99408.91;;;12.70;100.00
13080;BME280;6606;49.154;9.280;2023-11-19T08:15:59;99408.16;;;12.68;100.00
13080;BME280;6606;49.154;9.280;2023-11-19T08:18:44;99408.88;;;12.58;100.00
13080;BME280;6606;49.154;9.280;2023-11-19T08:21:26;99415.50;;;12.65;100.00
13080;BME280;6606;49.154;9.280;2023-11-19T08:24:08;99430.88;;;12.87;100.00
13080;BME280;6606;49.154;9.280;2023-11-19T08:26:51;99427.25;;;13.00;100.00
13080;BME280;6606;49.154;9.280;2023-11-19T08:29:33;99425.63;;;12.98;100.00
13080;BME280;6606;49.154;9.280;2023-11-19T08:32:14;99429.38;;;12.95;100.00
13080;BME280;6606;49.154;9.280;2023-11-19T08:34:56;99432.47;;;13.15;100.00
13080;BME280;6606;49.154;9.280;2023-11-19T08:37:38;99433.66;;;13.24;100.00
13080;BME280;6606;49.154;9.280;2023-11-19T08:40:20;99437.50;;;13.32;100.00
13080;BME280;6606;49.154;9.280;2023-11-19T08:43:03;99435.34;;;13.50;100.00
13080;BME280;6606;49.154;9.280;2023-11-19T08:45:45;99442.03;;;13.93;100.00
13080;BME280;6606;49.154;9.280;2023-11-19T08:48:27;99437.97;;;14.00;100.00
13080;BME280;6606;49.154;9.280;2023-11-19T08:51:09;99442.94;;;14.28;100.00
13080;BME280;6606;49.154;9.280;2023-11-19T08:53:51;99438.41;;;13.94;100.00
13080;BME280;6606;49.154;9.280;2023-11-19T08:56:32;99456.72;;;13.74;100.00
13080;BME280;6606;49.154;9.280;2023-11-19T08:59:17;99451.50;;;13.73;100.00
13080;BME280;6606;49.154;9.280;2023-11-19T09:01:59;99451.59;;;14.08;100.00
13080;BME280;6606;49.154;9.280;2023-11-19T09:04:43;99450.75;;;14.07;100.00
13080;BME280;6606;49.154;9.280;2023-11-19T09:07:27;99442.91;;;13.93;100.00
13080;BME280;6606;49.154;9.280;2023-11-19T09:10:09;99437.63;;;13.68;100.00
13080;BME280;6606;49.154;9.280;2023-11-19T09:12:52;99438.06;;;13.61;100.00
13080;BME280;6606;49.154;9.280;2023-11-19T09:15:35;99449.44;;;13.52;100.00
13080;BME280;6606;49.154;9.280;2023-11-19T09:18:16;99453.44;;;13.71;100.00
13080;BME280;6606;49.154;9.280;2023-11-19T09:20:59;99457.91;;;13.70;100.00
13080;BME280;6606;49.154;9.280;2023-11-19T09:23:41;99457.00;;;13.95;100.00
13080;BME280;6606;49.154;9.280;2023-11-19T09:26:22;99442.47;;;13.62;100.00
13080;BME280;6606;49.154;9.280;2023-11-19T09:29:04;99458.97;;;13.68;100.00
13080;BME280;6606;49.154;9.280;2023-11-19T09:31:47;99469.38;;;13.96;100.00
13080;BME280;6606;49.154;9.280;2023-11-19T09:34:29;99459.72;;;14.06;100.00
13080;BME280;6606;49.154;9.280;2023-11-19T09:37:12;99466.63;;;13.85;100.00
13080;BME280;6606;49.154;9.280;2023-11-19T09:39:53;99460.53;;;13.83;100.00
13080;BME280;6606;49.154;9.280;2023-11-19T09:42:41;99463.22;;;13.83;100.00
13080;BME280;6606;49.154;9.280;2023-11-19T09:45:27;99454.38;;;14.06;100.00
13080;BME280;6606;49.154;9.280;2023-11-19T09:48:11;99459.09;;;14.03;100.00
13080;BME280;6606;49.154;9.280;2023-11-19T09:50:53;99456.72;;;14.11;100.00
13080;BME280;6606;49.154;9.280;2023-11-19T09:53:36;99466.78;;;14.07;100.00
13080;BME280;6606;49.154;9.280;2023-11-19T09:56:19;99457.34;;;14.15;100.00
13080;BME280;6606;49.154;9.280;2023-11-19T09:59:01;99456.16;;;14.19;100.00
13080;BME280;6606;49.154;9.280;2023-11-19T10:01:43;99451.19;;;14.01;100.00
13080;BME280;6606;49.154;9.280;2023-11-19T10:04:29;99448.38;;;14.16;100.00
13080;BME280;6606;49.154;9.280;2023-11-19T10:07:11;99457.63;;;14.23;100.00
13080;BME280;6606;49.154;9.280;2023-11-19T10:09:53;99459.28;;;14.61;100.00
13080;BME280;6606;49.154;9.280;2023-11-19T10:12:35;99454.84;;;14.48;100.00
13080;BME280;6606;49.154;9.280;2023-11-19T10:15:20;99453.16;;;14.47;100.00
13080;BME280;6606;49.154;9.280;2023-11-19T10:18:03;99453.94;;;14.61;100.00
13080;BME280;6606;49.154;9.280;2023-11-19T10:20:47;99438.75;;;14.37;100.00
13080;BME280;6606;49.154;9.280;2023-11-19T10:23:29;99445.41;;;14.56;100.00
13080;BME280;6606;49.154;9.280;2023-11-19T10:26:11;99452.97;;;15.08;100.00
13080;BME280;6606;49.154;9.280;2023-11-19T10:28:53;99448.31;;;15.10;100.00
13080;BME280;6606;49.154;9.280;2023-11-19T10:31:34;99454.16;;;15.15;100.00
13080;BME280;6606;49.154;9.280;2023-11-19T10:34:24;99454.16;;;15.15;100.00
13080;BME280;6606;49.154;9.280;2023-11-19T10:37:08;99443.09;;;15.09;100.00
13080;BME280;6606;49.154;9.280;2023-11-19T10:39:54;99458.66;;;15.04;100.00
13080;BME280;6606;49.154;9.280;2023-11-19T10:42:36;99445.03;;;14.95;100.00
13080;BME280;6606;49.154;9.280;2023-11-19T10:45:22;99444.09;;;15.30;100.00
13080;BME280;6606;49.154;9.280;2023-11-19T10:48:06;99428.75;;;15.10;100.00
13080;BME280;6606;49.154;9.280;2023-11-19T10:50:53;99420.97;;;15.18;100.00
13080;BME280;6606;49.154;9.280;2023-11-19T10:53:38;99420.25;;;15.16;100.00
13080;BME280;6606;49.154;9.280;2023-11-19T10:56:20;99432.34;;;14.86;100.00
13080;BME280;6606;49.154;9.280;2023-11-19T10:59:07;99429.22;;;14.92;100.00
13080;BME280;6606;49.154;9.280;2023-11-19T11:01:53;99423.78;;;15.16;100.00
13080;BME280;6606;49.154;9.280;2023-11-19T11:04:39;99414.88;;;15.72;100.00
13080;BME280;6606;49.154;9.280;2023-11-19T11:07:22;99415.84;;;15.82;100.00
13080;BME280;6606;49.154;9.280;2023-11-19T11:10:08;99408.56;;;15.39;100.00
13080;BME280;6606;49.154;9.280;2023-11-19T11:12:50;99416.72;;;15.38;100.00
13080;BME280;6606;49.154;9.280;2023-11-19T11:15:38;99402.25;;;15.74;100.00
13080;BME280;6606;49.154;9.280;2023-11-19T11:18:21;99402.16;;;15.53;100.00
13080;BME280;6606;49.154;9.280;2023-11-19T11:21:06;99409.56;;;15.50;100.00
13080;BME280;6606;49.154;9.280;2023-11-19T11:27:51;99390.56;;;15.64;100.00
13080;BME280;6606;49.154;9.280;2023-11-19T11:30:43;99386.25;;;15.84;100.00
13080;BME280;6606;49.154;9.280;2023-11-19T11:33:36;99392.72;;;15.81;100.00
13080;BME280;6606;49.154;9.280;2023-11-19T11:36:22;99397.84;;;15.73;100.00
13080;BME280;6606;49.154;9.280;2023-11-19T11:39:04;99404.41;;;15.80;100.00
13080;BME280;6606;49.154;9.280;2023-11-19T11:45:11;99400.31;;;15.54;100.00
13080;BME280;6606;49.154;9.280;2023-11-19T11:48:09;99384.13;;;15.55;100.00
13080;BME280;6606;49.154;9.280;2023-11-19T11:50:53;99381.91;;;15.72;100.00
13080;BME280;6606;49.154;9.280;2023-11-19T11:53:41;99370.97;;;15.41;100.00
13080;BME280;6606;49.154;9.280;2023-11-19T11:56:23;99365.47;;;15.65;100.00
13080;BME280;6606;49.154;9.280;2023-11-19T11:59:07;99352.06;;;15.76;100.00
13080;BME280;6606;49.154;9.280;2023-11-19T12:01:58;99368.13;;;15.76;100.00
13080;BME280;6606;49.154;9.280;2023-11-19T12:04:40;99342.00;;;15.57;100.00
13080;BME280;6606;49.154;9.280;2023-11-19T12:07:23;99355.47;;;15.78;100.00
13080;BME280;6606;49.154;9.280;2023-11-19T12:10:12;99359.25;;;15.76;100.00
13080;BME280;6606;49.154;9.280;2023-11-19T12:12:58;99376.91;;;15.78;100.00
13080;BME280;6606;49.154;9.280;2023-11-19T12:16:08;99353.22;;;15.51;100.00
13080;BME280;6606;49.154;9.280;2023-11-19T12:19:03;99348.44;;;15.66;100.00
13080;BME280;6606;49.154;9.280;2023-11-19T12:21:46;99339.81;;;15.62;100.00
13080;BME280;6606;49.154;9.280;2023-11-19T12:24:28;99349.19;;;15.46;100.00
13080;BME280;6606;49.154;9.280;2023-11-19T12:27:20;99353.34;;;15.50;100.00
13080;BME280;6606;49.154;9.280;2023-11-19T12:30:16;99354.06;;;15.52;100.00
13080;BME280;6606;49.154;9.280;2023-11-19T12:33:07;99360.16;;;15.43;100.00
13080;BME280;6606;49.154;9.280;2023-11-19T12:35:51;99344.59;;;15.59;100.00
13080;BME280;6606;49.154;9.280;2023-11-19T12:38:32;99350.31;;;15.54;100.00
13080;BME280;6606;49.154;9.280;2023-11-19T12:41:14;99366.47;;;15.53;100.00
13080;BME280;6606;49.154;9.280;2023-11-19T12:44:10;99348.47;;;15.55;100.00
13080;BME280;6606;49.154;9.280;2023-11-19T12:47:03;99357.97;;;15.59;100.00
13080;BME280;6606;49.154;9.280;2023-11-19T12:49:55;99355.53;;;15.56;100.00
13080;BME280;6606;49.154;9.280;2023-11-19T12:52:39;99337.28;;;15.50;100.00
13080;BME280;6606;49.154;9.280;2023-11-19T12:55:24;99347.28;;;15.48;100.00
13080;BME280;6606;49.154;9.280;2023-11-19T12:58:06;99340.94;;;15.37;100.00
13080;BME280;6606;49.154;9.280;2023-11-19T13:00:48;99347.63;;;15.21;100.00
13080;BME280;6606;49.154;9.280;2023-11-19T13:03:34;99348.75;;;15.07;100.00
13080;BME280;6606;49.154;9.280;2023-11-19T13:06:16;99340.72;;;14.95;100.00
13080;BME280;6606;49.154;9.280;2023-11-19T13:09:02;99345.59;;;15.02;100.00
13080;BME280;6606;49.154;9.280;2023-11-19T13:11:44;99338.41;;;15.02;100.00
13080;BME280;6606;49.154;9.280;2023-11-19T13:14:36;99339.41;;;14.90;100.00
13080;BME280;6606;49.154;9.280;2023-11-19T13:17:18;99349.22;;;15.12;100.00
13080;BME280;6606;49.154;9.280;2023-11-19T13:20:01;99336.09;;;15.09;100.00
13080;BME280;6606;49.154;9.280;2023-11-19T13:22:54;99327.81;;;15.23;100.00
13080;BME280;6606;49.154;9.280;2023-11-19T13:25:37;99331.47;;;15.22;100.00
13080;BME280;6606;49.154;9.280;2023-11-19T13:28:19;99329.31;;;15.16;100.00
13080;BME280;6606;49.154;9.280;2023-11-19T13:31:00;99333.53;;;15.07;100.00
13080;BME280;6606;49.154;9.280;2023-11-19T13:33:43;99326.84;;;15.13;100.00
13080;BME280;6606;49.154;9.280;2023-11-19T13:36:25;99311.13;;;15.31;100.00
13080;BME280;6606;49.154;9.280;2023-11-19T13:39:07;99317.25;;;15.10;100.00
13080;BME280;6606;49.154;9.280;2023-11-19T13:41:50;99303.53;;;14.92;100.00
13080;BME280;6606;49.154;9.280;2023-11-19T13:44:34;99304.50;;;14.80;100.00
13080;BME280;6606;49.154;9.280;2023-11-19T13:47:16;99289.31;;;14.58;100.00
13080;BME280;6606;49.154;9.280;2023-11-19T13:49:58;99300.00;;;14.69;100.00
13080;BME280;6606;49.154;9.280;2023-11-19T13:52:41;99291.50;;;14.53;100.00
13080;BME280;6606;49.154;9.280;2023-11-19T13:55:29;99285.31;;;14.52;100.00
13080;BME280;6606;49.154;9.280;2023-11-19T13:58:13;99293.56;;;14.61;100.00
13080;BME280;6606;49.154;9.280;2023-11-19T14:00:54;99298.31;;;14.80;100.00
13080;BME280;6606;49.154;9.280;2023-11-19T14:03:36;99292.34;;;14.76;100.00
13080;BME280;6606;49.154;9.280;2023-11-19T14:06:21;99285.28;;;14.86;100.00
13080;BME280;6606;49.154;9.280;2023-11-19T14:09:03;99296.38;;;14.93;100.00
13080;BME280;6606;49.154;9.280;2023-11-19T14:11:46;99288.19;;;14.94;100.00
13080;BME280;6606;49.154;9.280;2023-11-19T14:14:31;99283.84;;;14.93;100.00
13080;BME280;6606;49.154;9.280;2023-11-19T14:17:13;99289.69;;;14.87;100.00
13080;BME280;6606;49.154;9.280;2023-11-19T14:19:55;99303.06;;;14.87;100.00
13080;BME280;6606;49.154;9.280;2023-11-19T14:22:37;99295.28;;;14.84;100.00
13080;BME280;6606;49.154;9.280;2023-11-19T14:25:21;99291.97;;;14.92;100.00
13080;BME280;6606;49.154;9.280;2023-11-19T14:28:07;99293.31;;;14.86;100.00
13080;BME280;6606;49.154;9.280;2023-11-19T14:30:50;99282.38;;;14.89;100.00
13080;BME280;6606;49.154;9.280;2023-11-19T14:33:39;99279.41;;;15.26;100.00
13080;BME280;6606;49.154;9.280;2023-11-19T14:36:21;99286.44;;;15.50;100.00